Cleveland, Ohio
Current Conditions -  °F | °C
As of 6:53 AM on Tuesday 21 Oct 2014 (Local Time) from KBKL Reporting Station
Moderate Rain Moderate Rain  
Wind Chill: 53°   Ceiling: 2200
Heat Index: 53°   Visibility: 10mi
Dew Point: 47°   Wind: 15mph
Humidity: 80%   Direction: 340°NNW
Pressure: 29.86"   Gusts: NA
Location:  41.5°N, 81.69°W
Report Text: KBKL 211053Z 34013KT 10SM RA SCT017 OVC022 12/08 A2986 RMK AO2 SLP113 P0000 T01170083
Loading
Personal Weather Stations






























Interactive Weather Map New forecast layout! Learn more

10-Day Weather Forecast

Advertisements
Track Severe Weather on mobile